Time,TemperatureF,DewpointF,PressureIn,WindDirection,WindDirectionDegrees,WindSpeedMPH,WindSpeedGustMPH,Humidity,HourlyPrecipIn,Conditions,Clouds,dailyrainin,SoftwareType,DateUTC
2013-05-27 00:02:00,59.0,38.8,30.34,NW,315,2.0,2.0,47,0.00,,,0.00,meteohub,2013-05-27 04:02:00,
2013-05-27 00:12:00,59.0,38.3,30.35,North,0,2.0,2.0,46,0.00,,,0.00,meteohub,2013-05-27 04:12:00,
2013-05-27 00:22:00,59.0,37.8,30.34,North,0,1.0,3.0,45,0.00,,,0.00,meteohub,2013-05-27 04:22:00,
2013-05-27 00:32:00,59.0,38.3,30.35,NNW,337,1.0,3.0,46,0.00,,,0.00,meteohub,2013-05-27 04:32:00,
2013-05-27 00:42:00,59.0,37.8,30.34,North,0,2.0,2.0,45,0.00,,,0.00,meteohub,2013-05-27 04:42:00,
2013-05-27 00:52:00,59.0,38.3,30.35,North,0,1.0,5.0,46,0.00,,,0.00,meteohub,2013-05-27 04:52:00,
2013-05-27 01:02:00,59.0,38.3,30.35,North,0,2.0,5.0,46,0.00,,,0.00,meteohub,2013-05-27 05:02:00,
2013-05-27 01:12:00,59.0,38.3,30.35,North,0,1.0,4.0,46,0.00,,,0.00,meteohub,2013-05-27 05:12:00,
2013-05-27 01:22:00,59.0,38.3,30.35,North,0,1.0,4.0,46,0.00,,,0.00,meteohub,2013-05-27 05:22:00,
2013-05-27 01:32:00,57.9,37.8,30.35,NW,315,1.0,5.0,47,0.00,,,0.00,meteohub,2013-05-27 05:32:00,
2013-05-27 01:42:00,57.9,37.8,30.35,NNW,337,3.0,5.0,47,0.00,,,0.00,meteohub,2013-05-27 05:42:00,
2013-05-27 01:52:00,57.9,38.3,30.35,North,0,2.0,4.0,48,0.00,,,0.00,meteohub,2013-05-27 05:52:00,
2013-05-27 02:02:00,57.9,38.8,30.36,North,0,1.0,5.0,49,0.00,,,0.00,meteohub,2013-05-27 06:02:00,
2013-05-27 02:12:00,57.0,38.5,30.35,North,0,1.0,4.0,50,0.00,,,0.00,meteohub,2013-05-27 06:12:00,
2013-05-27 02:22:00,57.0,38.5,30.35,NW,315,1.0,5.0,50,0.00,,,0.00,meteohub,2013-05-27 06:22:00,
2013-05-27 02:32:00,57.0,39.0,30.35,NW,315,2.0,6.0,51,0.00,,,0.00,meteohub,2013-05-27 06:32:00,
2013-05-27 02:42:00,55.9,38.1,30.35,NNW,337,2.0,6.0,51,0.00,,,0.00,meteohub,2013-05-27 06:42:00,
2013-05-27 02:52:00,55.9,38.5,30.34,North,0,2.0,5.0,52,0.00,,,0.00,meteohub,2013-05-27 06:52:00,
2013-05-27 03:02:00,55.9,39.6,30.34,North,0,1.0,5.0,54,0.00,,,0.00,meteohub,2013-05-27 07:02:00,
2013-05-27 03:12:00,55.0,38.7,30.34,North,0,2.0,5.0,54,0.00,,,0.00,meteohub,2013-05-27 07:12:00,
2013-05-27 03:22:00,55.0,39.2,30.34,North,0,2.0,5.0,55,0.00,,,0.00,meteohub,2013-05-27 07:22:00,
2013-05-27 03:32:00,55.0,39.2,30.34,North,0,4.0,4.0,55,0.00,,,0.00,meteohub,2013-05-27 07:32:00,
2013-05-27 03:42:00,55.0,39.2,30.34,North,0,2.0,5.0,55,0.00,,,0.00,meteohub,2013-05-27 07:42:00,
2013-05-27 03:52:00,55.0,39.6,30.35,North,0,3.0,5.0,56,0.00,,,0.00,meteohub,2013-05-27 07:52:00,
2013-05-27 04:02:00,55.0,39.6,30.35,North,0,2.0,6.0,56,0.00,,,0.00,meteohub,2013-05-27 08:02:00,
2013-05-27 04:12:00,54.0,39.0,30.34,NNW,337,0.0,4.0,57,0.00,,,0.00,meteohub,2013-05-27 08:12:00,
2013-05-27 04:22:00,54.0,39.6,30.34,NNW,337,2.0,4.0,58,0.00,,,0.00,meteohub,2013-05-27 08:22:00,
2013-05-27 04:32:00,54.0,39.6,30.34,North,0,1.0,4.0,58,0.00,,,0.00,meteohub,2013-05-27 08:32:00,
2013-05-27 04:42:00,53.1,39.6,30.35,NW,315,1.0,3.0,60,0.00,,,0.00,meteohub,2013-05-27 08:42:00,
2013-05-27 04:52:00,53.1,40.8,30.35,NNW,337,1.0,3.0,63,0.00,,,0.00,meteohub,2013-05-27 08:52:00,
2013-05-27 05:02:00,52.0,40.6,30.35,NNW,337,0.0,2.0,65,0.00,,,0.00,meteohub,2013-05-27 09:02:00,
2013-05-27 05:12:00,51.1,40.8,30.34,NNW,337,1.0,2.0,68,0.00,,,0.00,meteohub,2013-05-27 09:12:00,
2013-05-27 05:22:00,51.1,41.2,30.35,NNW,337,0.0,2.0,69,0.00,,,0.00,meteohub,2013-05-27 09:22:00,
2013-05-27 05:32:00,50.0,40.3,30.34,NNW,337,0.0,2.0,69,0.00,,,0.00,meteohub,2013-05-27 09:32:00,
2013-05-27 05:42:00,50.0,41.0,30.34,NNW,337,1.0,2.0,71,0.00,,,0.00,meteohub,2013-05-27 09:42:00,
2013-05-27 05:52:00,48.9,40.3,30.34,NNW,337,0.0,2.0,72,0.00,,,0.00,meteohub,2013-05-27 09:52:00,
2013-05-27 06:02:00,48.9,40.6,30.34,NNW,337,0.0,2.0,73,0.00,,,0.00,meteohub,2013-05-27 10:02:00,
2013-05-27 06:12:00,48.9,40.6,30.34,NNW,337,0.0,2.0,73,0.00,,,0.00,meteohub,2013-05-27 10:12:00,
2013-05-27 06:22:00,48.9,41.4,30.34,NNW,337,0.0,2.0,75,0.00,,,0.00,meteohub,2013-05-27 10:22:00,
2013-05-27 06:32:00,48.9,41.4,30.34,NNW,337,0.0,1.0,75,0.00,,,0.00,meteohub,2013-05-27 10:32:00,
2013-05-27 06:42:00,48.9,41.4,30.34,NNW,337,1.0,0.0,75,0.00,,,0.00,meteohub,2013-05-27 10:42:00,
2013-05-27 06:52:00,48.9,41.0,30.35,NNW,337,1.0,2.0,74,0.00,,,0.00,meteohub,2013-05-27 10:52:00,
2013-05-27 07:02:00,50.0,42.1,30.35,NNW,337,0.0,2.0,74,0.00,,,0.00,meteohub,2013-05-27 11:02:00,
2013-05-27 07:12:00,50.0,41.7,30.36,NNW,337,0.0,2.0,73,0.00,,,0.00,meteohub,2013-05-27 11:12:00,
2013-05-27 07:22:00,51.1,42.8,30.36,NNW,337,0.0,2.0,73,0.00,,,0.00,meteohub,2013-05-27 11:22:00,
2013-05-27 07:32:00,52.0,43.5,30.36,NNW,337,0.0,2.0,73,0.00,,,0.00,meteohub,2013-05-27 11:32:00,
2013-05-27 07:42:00,55.0,43.9,30.38,NNW,337,0.0,2.0,66,0.00,,,0.00,meteohub,2013-05-27 11:42:00,
2013-05-27 07:52:00,57.0,44.1,30.39,NNW,337,0.0,2.0,62,0.00,,,0.00,meteohub,2013-05-27 11:52:00,
2013-05-27 08:02:00,59.0,42.4,30.40,NE,45,0.0,0.0,54,0.00,,,0.00,meteohub,2013-05-27 12:02:00,
2013-05-27 08:12:00,61.0,42.8,30.41,NE,45,0.0,2.0,51,0.00,,,0.00,meteohub,2013-05-27 12:12:00,
2013-05-27 08:22:00,62.1,41.0,30.42,East,90,1.0,2.0,46,0.00,,,0.00,meteohub,2013-05-27 12:22:00,
2013-05-27 08:32:00,63.0,39.6,30.43,SE,135,2.0,3.0,42,0.00,,,0.00,meteohub,2013-05-27 12:32:00,
2013-05-27 08:42:00,64.0,40.5,30.44,ESE,112,1.0,3.0,42,0.00,,,0.00,meteohub,2013-05-27 12:42:00,
2013-05-27 08:52:00,64.9,37.4,30.44,ESE,112,2.0,2.0,36,0.00,,,0.00,meteohub,2013-05-27 12:52:00,
2013-05-27 09:02:00,64.9,37.4,30.44,SE,135,1.0,3.0,36,0.00,,,0.00,meteohub,2013-05-27 13:02:00,
2013-05-27 09:12:00,64.9,37.4,30.44,SE,135,1.0,4.0,36,0.00,,,0.00,meteohub,2013-05-27 13:12:00,
2013-05-27 09:22:00,66.0,37.6,30.44,SE,135,2.0,4.0,35,0.00,,,0.00,meteohub,2013-05-27 13:22:00,
2013-05-27 09:32:00,66.0,37.6,30.44,East,90,0.0,2.0,35,0.00,,,0.00,meteohub,2013-05-27 13:32:00,
2013-05-27 09:42:00,66.0,39.0,30.45,ESE,112,0.0,3.0,37,0.00,,,0.00,meteohub,2013-05-27 13:42:00,
2013-05-27 09:52:00,68.0,39.4,30.45,South,180,0.0,2.0,35,0.00,,,0.00,meteohub,2013-05-27 13:52:00,
2013-05-27 10:02:00,68.0,38.7,30.45,SW,225,1.0,2.0,34,0.00,,,0.00,meteohub,2013-05-27 14:02:00,
2013-05-27 10:12:00,69.1,38.8,30.46,SW,225,0.0,4.0,33,0.00,,,0.00,meteohub,2013-05-27 14:12:00,
2013-05-27 10:22:00,70.0,39.6,30.46,SW,225,0.0,2.0,33,0.00,,,0.00,meteohub,2013-05-27 14:22:00,
2013-05-27 10:32:00,70.0,40.3,30.45,SW,225,0.0,2.0,34,0.00,,,0.00,meteohub,2013-05-27 14:32:00,
2013-05-27 10:42:00,71.1,39.7,30.46,SW,225,0.0,0.0,32,0.00,,,0.00,meteohub,2013-05-27 14:42:00,
2013-05-27 10:52:00,72.0,39.7,30.46,NW,315,1.0,2.0,31,0.00,,,0.00,meteohub,2013-05-27 14:52:00,
2013-05-27 11:02:00,72.0,39.7,30.46,SW,225,2.0,3.0,31,0.00,,,0.00,meteohub,2013-05-27 15:02:00,
2013-05-27 11:12:00,73.0,37.0,30.46,NW,315,4.0,4.0,27,0.00,,,0.00,meteohub,2013-05-27 15:12:00,
2013-05-27 11:22:00,71.1,37.2,30.46,NNW,337,2.0,5.0,29,0.00,,,0.00,meteohub,2013-05-27 15:22:00,
2013-05-27 11:32:00,70.0,37.0,30.45,NW,315,4.0,5.0,30,0.00,,,0.00,meteohub,2013-05-27 15:32:00,
2013-05-27 11:42:00,69.1,37.2,30.44,SSW,202,2.0,6.0,31,0.00,,,0.00,meteohub,2013-05-27 15:42:00,
2013-05-27 11:52:00,70.0,37.0,30.44,North,0,2.0,6.0,30,0.00,,,0.00,meteohub,2013-05-27 15:52:00,
2013-05-27 12:02:00,70.0,38.8,30.44,NW,315,1.0,5.0,32,0.00,,,0.00,meteohub,2013-05-27 16:02:00,
2013-05-27 12:12:00,70.0,39.6,30.43,NE,45,0.0,2.0,33,0.00,,,0.00,meteohub,2013-05-27 16:12:00,
2013-05-27 12:22:00,70.0,37.0,30.43,NW,315,2.0,2.0,30,0.00,,,0.00,meteohub,2013-05-27 16:22:00,
2013-05-27 12:32:00,70.0,37.0,30.43,NW,315,0.0,4.0,30,0.00,,,0.00,meteohub,2013-05-27 16:32:00,
2013-05-27 12:42:00,70.0,38.8,30.43,NW,315,1.0,4.0,32,0.00,,,0.00,meteohub,2013-05-27 16:42:00,
2013-05-27 12:52:00,71.1,41.4,30.43,SW,225,0.0,4.0,34,0.00,,,0.00,meteohub,2013-05-27 16:52:00,
2013-05-27 13:02:00,72.0,38.8,30.43,NW,315,1.0,2.0,30,0.00,,,0.00,meteohub,2013-05-27 17:02:00,
2013-05-27 13:12:00,72.0,39.7,30.43,SSE,157,0.0,2.0,31,0.00,,,0.00,meteohub,2013-05-27 17:12:00,
2013-05-27 13:22:00,71.1,38.1,30.42,SW,225,0.0,2.0,30,0.00,,,0.00,meteohub,2013-05-27 17:22:00,
2013-05-27 13:32:00,72.0,39.7,30.42,ESE,112,1.0,4.0,31,0.00,,,0.00,meteohub,2013-05-27 17:32:00,
2013-05-27 13:42:00,71.1,39.7,30.42,South,180,0.0,2.0,32,0.00,,,0.00,meteohub,2013-05-27 17:42:00,
2013-05-27 13:52:00,71.1,40.5,30.42,South,180,0.0,4.0,33,0.00,,,0.00,meteohub,2013-05-27 17:52:00,
2013-05-27 14:02:00,71.1,40.5,30.42,SE,135,1.0,4.0,33,0.00,,,0.00,meteohub,2013-05-27 18:02:00,
2013-05-27 14:12:00,71.1,38.8,30.42,SW,225,2.0,3.0,31,0.00,,,0.00,meteohub,2013-05-27 18:12:00,
2013-05-27 14:22:00,71.1,40.5,30.42,West,270,0.0,4.0,33,0.00,,,0.00,meteohub,2013-05-27 18:22:00,
2013-05-27 14:32:00,71.1,40.5,30.41,South,180,1.0,3.0,33,0.00,,,0.00,meteohub,2013-05-27 18:32:00,
2013-05-27 14:42:00,71.1,38.8,30.41,WSW,247,0.0,3.0,31,0.00,,,0.00,meteohub,2013-05-27 18:42:00,
2013-05-27 14:52:00,71.1,38.8,30.40,SW,225,1.0,4.0,31,0.00,,,0.00,meteohub,2013-05-27 18:52:00,
2013-05-27 15:02:00,71.1,41.4,30.40,WNW,292,2.0,3.0,34,0.00,,,0.00,meteohub,2013-05-27 19:02:00,
2013-05-27 15:12:00,71.1,42.1,30.40,West,270,0.0,3.0,35,0.00,,,0.00,meteohub,2013-05-27 19:12:00,
2013-05-27 15:22:00,71.1,40.5,30.40,South,180,2.0,3.0,33,0.00,,,0.00,meteohub,2013-05-27 19:22:00,
2013-05-27 15:32:00,71.1,42.1,30.39,South,180,1.0,4.0,35,0.00,,,0.00,meteohub,2013-05-27 19:32:00,
2013-05-27 15:42:00,71.1,42.8,30.39,SW,225,0.0,4.0,36,0.00,,,0.00,meteohub,2013-05-27 19:42:00,
2013-05-27 15:52:00,71.1,42.1,30.39,SW,225,0.0,2.0,35,0.00,,,0.00,meteohub,2013-05-27 19:52:00,
2013-05-27 16:02:00,71.1,42.1,30.38,SSW,202,2.0,2.0,35,0.00,,,0.00,meteohub,2013-05-27 20:02:00,
2013-05-27 16:12:00,71.1,42.1,30.38,South,180,1.0,2.0,35,0.00,,,0.00,meteohub,2013-05-27 20:12:00,
2013-05-27 16:22:00,71.1,42.8,30.38,SE,135,1.0,4.0,36,0.00,,,0.00,meteohub,2013-05-27 20:22:00,
2013-05-27 16:32:00,70.0,41.7,30.37,South,180,1.0,4.0,36,0.00,,,0.00,meteohub,2013-05-27 20:32:00,
2013-05-27 16:42:00,70.0,42.4,30.37,NW,315,2.0,2.0,37,0.00,,,0.00,meteohub,2013-05-27 20:42:00,
2013-05-27 16:52:00,70.0,43.2,30.37,West,270,0.0,4.0,38,0.00,,,0.00,meteohub,2013-05-27 20:52:00,
2013-05-27 17:02:00,70.0,41.7,30.37,SW,225,0.0,4.0,36,0.00,,,0.00,meteohub,2013-05-27 21:02:00,
2013-05-27 17:12:00,70.0,42.4,30.37,East,90,0.0,2.0,37,0.00,,,0.00,meteohub,2013-05-27 21:12:00,
2013-05-27 17:22:00,69.1,42.4,30.36,SE,135,0.0,2.0,38,0.00,,,0.00,meteohub,2013-05-27 21:22:00,
2013-05-27 17:32:00,69.1,43.2,30.36,South,180,2.0,2.0,39,0.00,,,0.00,meteohub,2013-05-27 21:32:00,
2013-05-27 17:42:00,69.1,44.4,30.36,North,0,0.0,2.0,41,0.00,,,0.00,meteohub,2013-05-27 21:42:00,
2013-05-27 17:52:00,69.1,43.7,30.36,NE,45,0.0,2.0,40,0.00,,,0.00,meteohub,2013-05-27 21:52:00,
2013-05-27 18:02:00,69.1,44.4,30.36,North,0,1.0,2.0,41,0.00,,,0.00,meteohub,2013-05-27 22:02:00,
2013-05-27 18:12:00,69.1,44.4,30.36,North,0,1.0,2.0,41,0.00,,,0.00,meteohub,2013-05-27 22:12:00,
2013-05-27 18:22:00,68.0,44.6,30.36,NW,315,0.0,3.0,43,0.00,,,0.00,meteohub,2013-05-27 22:22:00,
2013-05-27 18:32:00,68.0,45.3,30.35,NW,315,2.0,4.0,44,0.00,,,0.00,meteohub,2013-05-27 22:32:00,
2013-05-27 18:42:00,68.0,45.3,30.35,West,270,1.0,4.0,44,0.00,,,0.00,meteohub,2013-05-27 22:42:00,
2013-05-27 18:52:00,68.0,45.9,30.35,WSW,247,2.0,4.0,45,0.00,,,0.00,meteohub,2013-05-27 22:52:00,
2013-05-27 19:02:00,66.9,45.0,30.34,West,270,0.0,4.0,45,0.00,,,0.00,meteohub,2013-05-27 23:02:00,
2013-05-27 19:12:00,66.9,45.5,30.34,West,270,0.0,2.0,46,0.00,,,0.00,meteohub,2013-05-27 23:12:00,
2013-05-27 19:22:00,66.9,45.5,30.34,West,270,0.0,2.0,46,0.00,,,0.00,meteohub,2013-05-27 23:22:00,
2013-05-27 19:32:00,66.9,46.0,30.34,West,270,0.0,2.0,47,0.00,,,0.00,meteohub,2013-05-27 23:32:00,
2013-05-27 19:42:00,66.0,46.4,30.34,West,270,0.0,2.0,49,0.00,,,0.00,meteohub,2013-05-27 23:42:00,
2013-05-27 19:52:00,66.0,46.8,30.35,West,270,0.0,0.0,50,0.00,,,0.00,meteohub,2013-05-27 23:52:00,
2013-05-27 20:02:00,66.0,46.8,30.34,West,270,0.0,0.0,50,0.00,,,0.00,meteohub,2013-05-28 00:02:00,
2013-05-27 20:12:00,66.0,47.8,30.34,West,270,0.0,1.0,52,0.00,,,0.00,meteohub,2013-05-28 00:12:00,
2013-05-27 20:22:00,64.9,46.9,30.34,West,270,0.0,0.0,52,0.00,,,0.00,meteohub,2013-05-28 00:22:00,
2013-05-27 20:32:00,64.9,46.9,30.34,West,270,0.0,0.0,52,0.00,,,0.00,meteohub,2013-05-28 00:32:00,
2013-05-27 20:42:00,64.9,47.8,30.34,West,270,0.0,0.0,54,0.00,,,0.00,meteohub,2013-05-28 00:42:00,
2013-05-27 20:52:00,64.0,47.5,30.34,West,270,0.0,1.0,55,0.00,,,0.00,meteohub,2013-05-28 00:52:00,
2013-05-27 21:02:00,64.0,47.5,30.34,West,270,0.0,1.0,55,0.00,,,0.00,meteohub,2013-05-28 01:02:00,
2013-05-27 21:12:00,63.0,47.5,30.34,West,270,0.0,0.0,57,0.00,,,0.00,meteohub,2013-05-28 01:12:00,
2013-05-27 21:22:00,63.0,48.4,30.34,West,270,0.0,0.0,59,0.00,,,0.00,meteohub,2013-05-28 01:22:00,
2013-05-27 21:32:00,62.1,48.0,30.34,West,270,0.0,0.0,60,0.00,,,0.00,meteohub,2013-05-28 01:32:00,
2013-05-27 21:42:00,62.1,48.9,30.34,West,270,0.0,0.0,62,0.00,,,0.00,meteohub,2013-05-28 01:42:00,
2013-05-27 21:52:00,61.0,48.7,30.34,West,270,0.0,0.0,64,0.00,,,0.00,meteohub,2013-05-28 01:52:00,
2013-05-27 22:02:00,60.1,47.8,30.34,West,270,0.0,0.0,64,0.00,,,0.00,meteohub,2013-05-28 02:02:00,
2013-05-27 22:12:00,60.1,46.9,30.34,West,270,0.0,0.0,62,0.00,,,0.00,meteohub,2013-05-28 02:12:00,
2013-05-27 22:22:00,60.1,47.5,30.34,West,270,0.0,0.0,63,0.00,,,0.00,meteohub,2013-05-28 02:22:00,
2013-05-27 22:32:00,60.1,47.8,30.34,West,270,0.0,0.0,64,0.00,,,0.00,meteohub,2013-05-28 02:32:00,
2013-05-27 22:42:00,60.1,48.2,30.34,West,270,0.0,0.0,65,0.00,,,0.00,meteohub,2013-05-28 02:42:00,
2013-05-27 22:52:00,60.1,47.8,30.34,West,270,0.0,0.0,64,0.00,,,0.00,meteohub,2013-05-28 02:52:00,
2013-05-27 23:02:00,60.1,46.9,30.34,West,270,0.0,0.0,62,0.00,,,0.00,meteohub,2013-05-28 03:02:00,
2013-05-27 23:12:00,60.1,48.2,30.33,West,270,0.0,0.0,65,0.00,,,0.00,meteohub,2013-05-28 03:12:00,
2013-05-27 23:22:00,60.1,49.1,30.34,West,270,0.0,0.0,67,0.00,,,0.00,meteohub,2013-05-28 03:22:00,
2013-05-27 23:32:00,60.1,48.2,30.34,West,270,0.0,0.0,65,0.00,,,0.00,meteohub,2013-05-28 03:32:00,
2013-05-27 23:42:00,60.1,49.1,30.33,West,270,0.0,0.0,67,0.00,,,0.00,meteohub,2013-05-28 03:42:00,
2013-05-27 23:52:00,60.1,50.2,30.34,West,270,0.0,0.0,70,0.00,,,0.00,meteohub,2013-05-28 03:52:00,